This is the latest recevied weather packets stored in our database for station/object AD8IZ-13. If no packets are shown the sender has not sent any weather packets the latest 10 day(s).
| Time | Temp. | Humidity | Pressure | Rain* | Wind** | Luminosity | Snow |
|---|---|---|---|---|---|---|---|
| 1778088319 | 15° C | 58% | 1011.9 hPa | 0 mm | - | 949 W/m² | - |
| 1778087718 | 14.44° C | 58% | 1011.9 hPa | 0 mm | - | 953 W/m² | - |
| 1778087119 | 14.44° C | 59% | 1011.8 hPa | 0 mm | - | 943 W/m² | - |
| 1778086519 | 14.44° C | 58% | 1011.9 hPa | 0 mm | - | 673 W/m² | - |
| 1778085919 | 13.89° C | 61% | 1012.3 hPa | 0 mm | - | 809 W/m² | - |
| 1778085319 | 13.89° C | 61% | 1012.3 hPa | 0 mm | - | 703 W/m² | - |
| 1778084720 | 13.89° C | 61% | 1012 hPa | 0 mm | - | 740 W/m² | - |
| 1778084120 | 13.33° C | 65% | 1012.1 hPa | 0 mm | - | 919 W/m² | - |
| 1778083519 | 13.33° C | 68% | 1012 hPa | 0 mm | - | 707 W/m² | - |
| 1778082920 | 12.78° C | 68% | 1011.9 hPa | 0 mm | - | 624 W/m² | - |
| 1778082317 | 12.22° C | 72% | 1012 hPa | 0 mm | - | 774 W/m² | - |
| 1778081721 | 12.22° C | 72% | 1011.9 hPa | 0 mm | - | 555 W/m² | - |
| 1778081121 | 11.67° C | 75% | 1011.8 hPa | 0 mm | - | 514 W/m² | - |
| 1778080522 | 11.11° C | 77% | 1011.7 hPa | 0 mm | - | 545 W/m² | - |
| 1778079918 | 11.11° C | 78% | 1011.7 hPa | 0 mm | - | 459 W/m² | - |
| 1778079318 | 10.56° C | 79% | 1011.7 hPa | 0 mm | - | 450 W/m² | - |
| 1778078719 | 10.56° C | 79% | 1011.7 hPa | 0 mm | - | 396 W/m² | - |
| 1778078122 | 10° C | 81% | 1011.7 hPa | 0 mm | - | 351 W/m² | - |
| 1778077518 | 9.44° C | 82% | 1011.5 hPa | 0 mm | - | 342 W/m² | - |
| 1778076919 | 9.44° C | 85% | 1011.3 hPa | 0 mm | - | 350 W/m² | - |
| 1778076320 | 9.44° C | 89% | 1011.2 hPa | 0 mm | - | 318 W/m² | - |
| 1778075722 | 9.44° C | 90% | 1011.2 hPa | 0 mm | - | 239 W/m² | - |
| 1778075123 | 9.44° C | 91% | 1011 hPa | 0 mm | - | 263 W/m² | - |
| 1778074522 | 9.44° C | 92% | 1010.9 hPa | 0 mm | - | 244 W/m² | - |
| 1778073922 | 8.89° C | 94% | 1010.9 hPa | 0 mm | - | 232 W/m² | - |
* Rain latest hour (hover to see other rain measurements)
** Current wind speed in m/s (hover to see current wind gust speed)